Terminal Aerodrome Forecast
Issued by NWS

Home | Current Version | Previous Version | Text Only | Print | Product List | Glossary On
Versions: 1 2 3 4 5 6 7 8 9 10 11 12 13 14 15
000
FTUS45 KABQ 221600 AAA
TAFSAF
TAF AMD
KSAF 221619Z 2216/2312 36011KT P6SM FEW150
     FM222000 11010KT P6SM FEW100 SCT150
     FM222300 12011G20KT P6SM VCTS SCT100CB BKN150
     FM230100 13012G22KT P6SM VCSH BKN100
     FM230400 07008KT P6SM BKN100=

USA.gov is the U.S. government's official web portal to all federal, state and local government web resources and services.